Nearby METAR Reports

 

KMHT - Manchester, New Hampshire, USA
Distance from station: NNW 6mi, 9km
Updated: 2018-04-21 06:53
Clear
Clear
 Wind from SSE
Wind: SSE 3 mph , 6 km/h
Temperature: 36°F , 2°C
Dew Point: 27°F , -3°C
Humidity: 70%
Barometer: 30.28 inHg , 1025.4 hPa
Clouds: Clear
Visibility: 10 miles , 16 km
2018/04/21 10:53 KMHT 211053Z 15003KT 10SM CLR 02/M03 A3028 RMK AO2 SLP271 T00171028
KASH - Nashua/Boire Fld, New Hampshire, USA
Distance from station: SW 9mi, 15km
Updated: 2018-04-21 06:56
Clear
Clear
 Wind from WNW
Wind: WNW 7 mph , 11 km/h
Temperature: 37°F , 3°C
Wind Chill: 32°F , 0°C
Dew Point: 28°F , -2°C
Humidity: 70%
Barometer: 30.30 inHg , 1026.1 hPa
Clouds: Clear
Visibility: 10 miles , 16 km
2018/04/21 10:56 KASH 211056Z 29006KT 10SM CLR 03/M02 A3030 RMK AO2 SLP273 T00281022
 
KLWM - Lawrence, Massachusetts, USA
Distance from station: SE 16mi, 26km
Updated: 2018-04-21 06:54
Clear
Clear
 Wind from W
Wind: W 5 mph , 7 km/h
Temperature: 39°F , 4°C
Wind Chill: 35°F , 2°C
Dew Point: 27°F , -3°C
Humidity: 61%
Barometer: 30.31 inHg , 1026.4 hPa
Clouds: Clear
Visibility: 10 miles , 16 km
2018/04/21 10:54 KLWM 211054Z 27004KT 10SM CLR 04/M03 A3031 RMK AO2 SLP264 T00391028
KCON - Concord, New Hampshire, USA
Distance from station: NNW 24mi, 39km
Updated: 2018-04-21 06:51
Clear
Clear
 Wind from calm
Wind: Calm
Temperature: 34°F , 1°C
Dew Point: 27°F , -3°C
Humidity: 75%
Barometer: 30.29 inHg , 1025.7 hPa
Clouds: Clear
Visibility: 10 miles , 16 km
2018/04/21 10:51 KCON 211051Z AUTO 00000KT 10SM CLR 01/M03 A3029 RMK AO2 SLP259 T00061033
 
KBED - Bedford, Massachusetts, USA
Distance from station: S 28mi, 45km
Updated: 2018-04-21 06:56
Clear
Clear
 Wind from W
Wind: W 7 mph , 11 km/h
Temperature: 37°F , 3°C
Wind Chill: 32°F , 0°C
Dew Point: 27°F , -3°C
Humidity: 65%
Barometer: 30.29 inHg , 1025.7 hPa
Clouds: Clear
Visibility: 10 miles , 16 km
2018/04/21 10:56 KBED 211056Z 27006KT 10SM CLR 03/M03 A3029 RMK AO2 SLP273 T00281033
KFIT - Fitchburg, Massachusetts, USA
Distance from station: SW 29mi, 47km
Updated: 2018-04-21 06:52
Clear
Clear
 Wind from calm
Wind: Calm
Temperature: 37°F , 3°C
Dew Point: 28°F , -2°C
Humidity: 70%
Barometer: 30.31 inHg , 1026.4 hPa
Clouds: Clear
Visibility: 10 miles , 16 km
2018/04/21 10:52 KFIT 211052Z AUTO 00000KT 10SM CLR 03/M02 A3031 RMK AO2 SLP268 T00331022
 
KBVY - Beverly, Massachusetts, USA
Distance from station: SE 30mi, 49km
Updated: 2018-04-21 06:53
Clear
Clear
 Wind from WNW
Wind: WNW 6 mph , 9 km/h
Temperature: 37°F , 3°C
Wind Chill: 32°F , 0°C
Dew Point: 28°F , -2°C
Humidity: 70%
Barometer: 30.28 inHg , 1025.4 hPa
Clouds: Clear
Visibility: 10 miles , 16 km
2018/04/21 10:53 KBVY 211053Z 29005KT 10SM CLR 03/M02 A3028 RMK AO2 SLP249 T00331022
KPSM - Portsmouth/Pease, New Hampshire, USA
Distance from station: ENE 31mi, 51km
Updated: 2018-04-21 06:56
Few Clouds
Few Clouds
 Wind from W
Wind: W 9 mph , 15 km/h
Temperature: 39°F , 4°C
Wind Chill: 33°F , 1°C
Dew Point: 27°F , -3°C
Humidity: 61%
Barometer: 30.25 inHg , 1024.4 hPa
Clouds: Few Clouds
Visibility: 10 miles , 16 km
Cloud details: Few Clouds 5000 ft
2018/04/21 10:56 KPSM 211056Z 28008KT 10SM FEW050 04/M03 A3025 RMK AO2A SLP247 T00361030
 
KAFN - Jaffrey, New Hampshire, USA
Distance from station: W 32mi, 52km
Updated: 2018-04-21 06:52
Clear
Clear
 Wind from varies
Wind: varies 5 mph , 7 km/h
Temperature: 36°F , 2°C
Wind Chill: 32°F , 0°C
Dew Point: 27°F , -3°C
Humidity: 70%
Barometer: 30.28 inHg , 1025.4 hPa
Clouds: Clear
Visibility: 10 miles , 16 km
2018/04/21 10:52 KAFN 211052Z AUTO VRB04KT 10SM CLR 02/M03 A3028 RMK AO2 SLP270 T00171028
KDAW - Rochester, New Hampshire, USA
Distance from station: NE 37mi, 60km
Updated: 2018-04-21 06:51
Clear
Clear
 Wind from WNW
Wind: WNW 7 mph , 11 km/h
Temperature: 37°F , 3°C
Wind Chill: 32°F , 0°C
Dew Point: 27°F , -3°C
Humidity: 65%
Barometer: 30.26 inHg , 1024.7 hPa
Clouds: Clear
Visibility: 10 miles , 16 km
2018/04/21 10:51 KDAW 211051Z AUTO 29006KT 10SM CLR 03/M03 A3026 RMK AO2 SLP246 T00281028
 
KBOS - Boston, Massachusetts, USA
Distance from station: SSE 39mi, 63km
Updated: 2018-04-21 06:54
Few Clouds
Few Clouds
 Wind from W
Wind: W 12 mph , 19 km/h
Temperature: 39°F , 4°C
Wind Chill: 32°F , 0°C
Dew Point: 27°F , -3°C
Humidity: 61%
Barometer: 30.30 inHg , 1026.1 hPa
Clouds: Few Clouds
Visibility: 10 miles , 16 km
Cloud details: Few Clouds 5000 ft
2018/04/21 10:54 KBOS 211054Z 28010KT 10SM FEW050 04/M03 A3030 RMK AO2 SLP258 T00441028
KEEN - Keene/Dillant, New Hampshire, USA
Distance from station: W 45mi, 73km
Updated: 2018-04-21 06:56
Clear
Clear
 Wind from calm
Wind: Calm
Temperature: 28°F , -2°C
Dew Point: 27°F , -3°C
Humidity: 93%
Barometer: 30.32 inHg , 1026.8 hPa
Clouds: Clear
Visibility: 10 miles , 16 km
2018/04/21 10:56 KEEN 211056Z AUTO 00000KT 10SM CLR M02/M03 A3032 RMK AO2 SLP290 T10221028 FZRANO
 
KMQE - East Milton, Massachusetts, USA
Distance from station: SSE 47mi, 75km
Updated: 2018-04-21 06:56

 Wind from WNW
Wind: WNW 12 mph , 19 km/h
Temperature: 34°F , 1°C
Wind Chill: 25°F , -4°C
Dew Point: 27°F , -3°C
Humidity: 75%
Barometer: 30.26 inHg , 1024.7 hPa
2018/04/21 10:56 KMQE 211056Z AUTO 30010KT 01/M03 A3026 RMK AO1 SLP265 T00111033
KORH - Worcester, Massachusetts, USA
Distance from station: SSW 48mi, 78km
Updated: 2018-04-21 06:54
Clear
Clear
 Wind from W
Wind: W 9 mph , 15 km/h
Temperature: 32°F , 0°C
Wind Chill: 24°F , -4°C
Dew Point: 25°F , -4°C
Humidity: 75%
Barometer: 30.29 inHg , 1025.7 hPa
Clouds: Clear
Visibility: 10 miles , 16 km
2018/04/21 10:54 KORH 211054Z 27008KT 10SM CLR 00/M04 A3029 RMK AO2 SLP268 T00001044
 
KOWD - Norwood, Massachusetts, USA
Distance from station: SSE 48mi, 78km
Updated: 2018-04-21 06:53
Clear
Clear
 Wind from W
Wind: W 7 mph , 11 km/h
Temperature: 39°F , 4°C
Wind Chill: 34°F , 1°C
Dew Point: 28°F , -2°C
Humidity: 65%
Barometer: 30.30 inHg , 1026.1 hPa
Clouds: Clear
Visibility: 10 miles , 16 km
2018/04/21 10:53 KOWD 211053Z 28006KT 10SM CLR 04/M02 A3030 RMK AO2 SLP261 T00441022
KLCI - Laconia Muni, New Hampshire, USA
Distance from station: N 49mi, 78km
Updated: 2018-04-21 06:56
Clear
Clear
 Wind from calm
Wind: Calm
Temperature: 36°F , 2°C
Dew Point: 34°F , 1°C
Humidity: 93%
Barometer: 30.27 inHg , 1025.1 hPa
Clouds: Clear
Visibility: 10 miles , 16 km
2018/04/21 10:56 KLCI 211056Z AUTO 00000KT 10SM CLR 02/01 A3027 RMK AO2 SLP270 T00170006 FZRANO
 
KSFM - Sanford Muni, Maine, USA
Distance from station: NE 49mi, 79km
Updated: 2018-04-21 06:56
Clear
Clear
 Wind from WNW
Wind: WNW 8 mph , 13 km/h
Temperature: 37°F , 3°C
Wind Chill: 31°F , -1°C
Dew Point: 27°F , -3°C
Humidity: 65%
Barometer: 30.26 inHg , 1024.7 hPa
Clouds: Clear
Visibility: 10 miles , 16 km
2018/04/21 10:56 KSFM 211056Z AUTO 30007KT 10SM CLR 03/M03 A3026 RMK AO2 SLP253 T00281028